Time;durP1;ratioP1;P1;durP2;ratioP2;P2;SDS_P1;SDS_P2;PMS_P1;PMS_P2;Temp;Humidity;BMP_temperature;BMP_pressure;BME280_temperature;BME280_humidity;BME280_pressure;Samples;Min_cycle;Max_cycle;Signal;HPM_P1;HPM_P2
2023/06/30 00:02:24;;;;;;;5.20;3.08;;;;;;;;;;5014388;28;20531;-72
2023/06/30 00:04:51;;;;;;;6.55;1.88;;;;;;;;;;5014490;28;20034;-72
2023/06/30 00:07:22;;;;;;;6.35;1.98;;;;;;;;;;5014436;28;20038;-72
2023/06/30 00:09:50;;;;;;;6.85;2.22;;;;;;;;;;5014274;28;20446;-72
2023/06/30 00:12:16;;;;;;;6.65;2.50;;;;;;;;;;5014615;28;20018;-72
2023/06/30 00:14:43;;;;;;;6.57;3.05;;;;;;;;;;5014645;28;20033;-72
2023/06/30 00:17:09;;;;;;;8.20;2.10;;;;;;;;;;5014320;28;20496;-72
2023/06/30 00:19:35;;;;;;;8.50;2.28;;;;;;;;;;5014364;28;20391;-72
2023/06/30 00:22:01;;;;;;;6.70;2.28;;;;;;;;;;5014197;28;20461;-72
2023/06/30 00:24:27;;;;;;;7.90;1.80;;;;;;;;;;5014066;28;20080;-72
2023/06/30 00:26:53;;;;;;;8.43;2.00;;;;;;;;;;5014128;28;20384;-72
2023/06/30 00:29:19;;;;;;;6.45;1.95;;;;;;;;;;5014074;28;20030;-72
2023/06/30 00:31:45;;;;;;;7.57;2.10;;;;;;;;;;5014032;28;20029;-72
2023/06/30 00:34:11;;;;;;;8.73;2.47;;;;;;;;;;5013962;28;20030;-72
2023/06/30 00:36:38;;;;;;;7.75;2.40;;;;;;;;;;5014023;28;20026;-72
2023/06/30 00:39:04;;;;;;;6.68;2.17;;;;;;;;;;5013927;28;20041;-72
2023/06/30 00:41:30;;;;;;;5.93;2.42;;;;;;;;;;5013729;28;20104;-72
2023/06/30 00:43:56;;;;;;;8.88;2.53;;;;;;;;;;5013917;28;20030;-72
2023/06/30 00:46:22;;;;;;;5.75;2.25;;;;;;;;;;5013720;28;20521;-72
2023/06/30 00:48:49;;;;;;;6.00;2.33;;;;;;;;;;5013753;28;20025;-72
2023/06/30 00:51:15;;;;;;;7.20;2.50;;;;;;;;;;5013797;28;20029;-72
2023/06/30 00:53:41;;;;;;;7.60;2.60;;;;;;;;;;5013601;28;20464;-72
2023/06/30 00:56:07;;;;;;;5.20;2.55;;;;;;;;;;5013431;28;20500;-72
2023/06/30 00:58:33;;;;;;;11.00;2.80;;;;;;;;;;5013807;28;20048;-72
2023/06/30 01:01:22;;;;;;;6.68;2.55;;;;;;;;;;5013561;28;20097;-72
2023/06/30 01:03:52;;;;;;;6.78;2.60;;;;;;;;;;5013371;28;20037;-71
2023/06/30 01:06:25;;;;;;;3.78;2.40;;;;;;;;;;5013823;28;20022;-72
2023/06/30 01:08:55;;;;;;;5.85;2.22;;;;;;;;;;5013444;28;20039;-72
2023/06/30 01:11:21;;;;;;;;;;;;;;;;;;5013788;28;20030;-72
2023/06/30 01:13:48;;;;;;;5.05;2.55;;;;;;;;;;5012840;28;19912;-72
2023/06/30 01:16:16;;;;;;;6.78;2.58;;;;;;;;;;5013276;28;20057;-72
2023/06/30 01:18:44;;;;;;;5.00;2.50;;;;;;;;;;5013185;28;20457;-72
2023/06/30 01:21:12;;;;;;;5.78;2.60;;;;;;;;;;5013368;28;20022;-72
2023/06/30 01:23:40;;;;;;;7.10;2.47;;;;;;;;;;5013347;28;20040;-72
2023/06/30 01:26:07;;;;;;;8.98;2.88;;;;;;;;;;5012950;28;20109;-72
2023/06/30 01:28:33;;;;;;;5.43;2.42;;;;;;;;;;5013190;28;20053;-72
2023/06/30 01:31:00;;;;;;;5.78;2.35;;;;;;;;;;5013036;28;20036;-73
2023/06/30 01:33:27;;;;;;;7.78;2.38;;;;;;;;;;5013349;28;20026;-73
2023/06/30 01:35:53;;;;;;;6.93;2.53;;;;;;;;;;5013194;28;20045;-73
2023/06/30 01:38:20;;;;;;;8.50;2.58;;;;;;;;;;5012868;28;20022;-73
2023/06/30 01:40:46;;;;;;;5.13;2.03;;;;;;;;;;5012999;28;20033;-73
2023/06/30 01:43:13;;;;;;;8.25;2.70;;;;;;;;;;5012869;28;20014;-73
2023/06/30 01:45:39;;;;;;;7.65;2.53;;;;;;;;;;5012585;28;20029;-73
2023/06/30 01:48:06;;;;;;;5.57;2.17;;;;;;;;;;5012600;28;20041;-73
2023/06/30 01:50:32;;;;;;;2.88;2.28;;;;;;;;;;5012642;28;20029;-73
2023/06/30 01:52:59;;;;;;;7.82;2.30;;;;;;;;;;5012957;28;20018;-73
2023/06/30 01:55:25;;;;;;;7.90;2.80;;;;;;;;;;5011733;28;20050;-73
2023/06/30 01:57:51;;;;;;;7.80;2.50;;;;;;;;;;5012652;28;20018;-73
2023/06/30 02:00:18;;;;;;;7.13;2.50;;;;;;;;;;5012622;28;20379;-73
2023/06/30 02:02:44;;;;;;;5.10;2.50;;;;;;;;;;5012484;28;20018;-73
2023/06/30 02:05:10;;;;;;;9.32;2.53;;;;;;;;;;5012606;28;20115;-73
2023/06/30 02:07:36;;;;;;;8.55;2.22;;;;;;;;;;5012602;28;20037;-73
2023/06/30 02:10:03;;;;;;;6.88;2.30;;;;;;;;;;5012495;28;20021;-73
2023/06/30 02:12:29;;;;;;;4.40;2.60;;;;;;;;;;5012069;28;20088;-73
2023/06/30 02:14:55;;;;;;;6.55;2.40;;;;;;;;;;5012569;28;20034;-73
2023/06/30 02:17:40;;;;;;;5.95;2.75;;;;;;;;;;5012742;28;20437;-72
2023/06/30 02:20:06;;;;;;;8.70;2.58;;;;;;;;;;5012729;28;20104;-73
2023/06/30 02:22:32;;;;;;;7.15;2.50;;;;;;;;;;5012528;28;20022;-73
2023/06/30 02:25:00;;;;;;;6.90;2.75;;;;;;;;;;5012211;28;20029;-73
2023/06/30 02:27:27;;;;;;;3.97;2.70;;;;;;;;;;5016665;28;20060;-73
2023/06/30 02:29:53;;;;;;;9.63;3.00;;;;;;;;;;5016658;28;20499;-73
2023/06/30 02:32:19;;;;;;;9.30;2.90;;;;;;;;;;5016379;28;20104;-73
2023/06/30 02:34:45;;;;;;;9.05;2.72;;;;;;;;;;5016177;28;20021;-73
2023/06/30 02:37:11;;;;;;;6.18;2.35;;;;;;;;;;5016241;28;20045;-73
2023/06/30 02:39:37;;;;;;;4.63;2.50;;;;;;;;;;5016158;28;20026;-73
2023/06/30 02:42:03;;;;;;;4.03;2.65;;;;;;;;;;5015990;28;20563;-73
2023/06/30 02:44:29;;;;;;;11.82;2.72;;;;;;;;;;5016223;28;20030;-73
2023/06/30 02:46:55;;;;;;;9.25;2.90;;;;;;;;;;5016020;28;20038;-73
2023/06/30 02:49:23;;;;;;;2.80;2.20;;;;;;;;;;5015892;28;20022;-73
2023/06/30 02:51:49;;;;;;;7.18;2.50;;;;;;;;;;5016285;28;20025;-73
2023/06/30 02:54:15;;;;;;;8.50;2.70;;;;;;;;;;5015860;28;20628;-73
2023/06/30 02:56:41;;;;;;;6.43;2.90;;;;;;;;;;5015548;28;20629;-73
2023/06/30 02:59:07;;;;;;;7.43;2.60;;;;;;;;;;5015721;28;20057;-73
2023/06/30 03:01:34;;;;;;;9.45;2.80;;;;;;;;;;5015663;28;20044;-73
2023/06/30 03:04:00;;;;;;;6.68;2.42;;;;;;;;;;5015904;28;20022;-73
2023/06/30 03:06:27;;;;;;;7.00;2.72;;;;;;;;;;5015936;28;20559;-73
2023/06/30 03:08:53;;;;;;;6.50;2.42;;;;;;;;;;5015598;28;20037;-73
2023/06/30 03:11:19;;;;;;;4.60;2.30;;;;;;;;;;5015556;28;20030;-73
2023/06/30 03:13:46;;;;;;;9.95;2.30;;;;;;;;;;5015482;28;20427;-73
2023/06/30 03:16:12;;;;;;;7.75;2.53;;;;;;;;;;5015438;28;20018;-73
2023/06/30 03:18:38;;;;;;;9.48;2.80;;;;;;;;;;5015248;28;20029;-73
2023/06/30 03:21:04;;;;;;;4.85;2.47;;;;;;;;;;5015299;28;20082;-73
2023/06/30 03:23:30;;;;;;;7.57;2.50;;;;;;;;;;5015470;28;20457;-73
2023/06/30 03:25:57;;;;;;;3.90;2.08;;;;;;;;;;5015145;28;20378;-73
2023/06/30 03:28:24;;;;;;;8.13;2.50;;;;;;;;;;5015258;28;20454;-73
2023/06/30 03:30:50;;;;;;;5.68;2.38;;;;;;;;;;5015233;28;20053;-73
2023/06/30 03:33:16;;;;;;;7.57;2.60;;;;;;;;;;5015034;28;20022;-72
2023/06/30 03:35:42;;;;;;;5.38;2.25;;;;;;;;;;5015272;28;20030;-73
2023/06/30 03:38:08;;;;;;;5.43;2.33;;;;;;;;;;5014599;28;20470;-73
2023/06/30 03:40:35;;;;;;;7.03;2.55;;;;;;;;;;5015023;28;20509;-73
2023/06/30 03:43:01;;;;;;;4.65;2.22;;;;;;;;;;5015101;28;20451;-73
2023/06/30 03:45:27;;;;;;;6.35;2.40;;;;;;;;;;5014832;28;20484;-73
2023/06/30 03:47:53;;;;;;;3.83;2.25;;;;;;;;;;5015154;28;20030;-73
2023/06/30 03:50:19;;;;;;;7.00;2.40;;;;;;;;;;5014819;28;20548;-73
2023/06/30 03:52:45;;;;;;;10.65;2.70;;;;;;;;;;5014918;28;20049;-73
2023/06/30 03:55:11;;;;;;;6.47;2.60;;;;;;;;;;5014497;28;20081;-73
2023/06/30 03:57:37;;;;;;;5.50;2.55;;;;;;;;;;5014695;28;20033;-73
2023/06/30 04:00:04;;;;;;;5.85;2.40;;;;;;;;;;5014942;28;20030;-73
2023/06/30 04:02:30;;;;;;;6.82;2.33;;;;;;;;;;5014637;28;20018;-73
2023/06/30 04:04:56;;;;;;;5.65;2.22;;;;;;;;;;5014588;28;20030;-73
2023/06/30 04:07:22;;;;;;;7.13;2.90;;;;;;;;;;5014507;28;20447;-72
2023/06/30 04:09:48;;;;;;;7.95;3.00;;;;;;;;;;5014429;28;20031;-73
2023/06/30 04:12:14;;;;;;;7.78;3.15;;;;;;;;;;5014438;28;20025;-73
2023/06/30 04:14:40;;;;;;;10.52;3.20;;;;;;;;;;5014416;28;20021;-73
2023/06/30 04:17:06;;;;;;;12.43;3.90;;;;;;;;;;5014256;28;20392;-73
2023/06/30 04:19:32;;;;;;;10.13;3.67;;;;;;;;;;5014385;28;20057;-73
2023/06/30 04:21:58;;;;;;;8.13;3.42;;;;;;;;;;5014181;28;20050;-73
2023/06/30 04:24:24;;;;;;;13.05;3.42;;;;;;;;;;5014108;28;20500;-73
2023/06/30 04:26:50;;;;;;;5.72;3.10;;;;;;;;;;5014246;28;20062;-73
2023/06/30 04:29:16;;;;;;;7.35;3.28;;;;;;;;;;5014138;28;20607;-73
2023/06/30 04:31:42;;;;;;;7.68;2.45;;;;;;;;;;5013931;28;20053;-73
2023/06/30 04:34:08;;;;;;;6.03;2.15;;;;;;;;;;5013975;28;20350;-73
2023/06/30 04:36:34;;;;;;;4.38;2.15;;;;;;;;;;5014003;28;20025;-73
2023/06/30 04:39:00;;;;;;;4.35;2.00;;;;;;;;;;5013893;28;20092;-73
2023/06/30 04:41:26;;;;;;;4.22;1.70;;;;;;;;;;5014128;28;20040;-73
2023/06/30 04:43:52;;;;;;;5.75;1.42;;;;;;;;;;5013796;28;20442;-73
2023/06/30 04:46:18;;;;;;;3.85;1.50;;;;;;;;;;5013723;28;20026;-73
2023/06/30 04:48:44;;;;;;;2.17;1.15;;;;;;;;;;5012965;28;20105;-73
2023/06/30 04:51:10;;;;;;;6.35;1.40;;;;;;;;;;5013693;28;20392;-73
2023/06/30 04:53:38;;;;;;;5.38;1.45;;;;;;;;;;5013634;28;20026;-73
2023/06/30 04:56:05;;;;;;;1.98;1.15;;;;;;;;;;5012616;28;20053;-73
2023/06/30 04:58:31;;;;;;;6.53;1.10;;;;;;;;;;5013584;28;20116;-73
2023/06/30 05:00:57;;;;;;;3.05;1.08;;;;;;;;;;5013695;28;20029;-73
2023/06/30 05:03:23;;;;;;;3.55;1.00;;;;;;;;;;5013613;28;20032;-73
2023/06/30 05:05:50;;;;;;;3.33;0.82;;;;;;;;;;5013398;28;20511;-73
2023/06/30 05:08:16;;;;;;;2.55;1.13;;;;;;;;;;5013543;28;20045;-73
2023/06/30 05:10:42;;;;;;;5.15;1.17;;;;;;;;;;5013372;28;20030;-73
2023/06/30 05:13:08;;;;;;;4.78;1.40;;;;;;;;;;5013231;28;20105;-73
2023/06/30 05:15:34;;;;;;;4.93;1.20;;;;;;;;;;5013249;28;20026;-73
2023/06/30 05:18:00;;;;;;;4.00;1.10;;;;;;;;;;5013480;28;20024;-73
2023/06/30 05:20:26;;;;;;;1.88;1.10;;;;;;;;;;5013480;28;20030;-73
2023/06/30 05:22:52;;;;;;;4.30;1.23;;;;;;;;;;5013021;28;20026;-73
2023/06/30 05:25:18;;;;;;;5.75;1.42;;;;;;;;;;5012986;28;20034;-73
2023/06/30 05:27:44;;;;;;;5.05;1.48;;;;;;;;;;5013029;28;20034;-73
2023/06/30 05:30:11;;;;;;;5.10;1.15;;;;;;;;;;5013007;28;20072;-73
2023/06/30 05:32:37;;;;;;;3.85;1.05;;;;;;;;;;5013044;28;20026;-73
2023/06/30 05:35:03;;;;;;;4.53;1.20;;;;;;;;;;5012999;28;20027;-73
2023/06/30 05:37:29;;;;;;;3.92;1.10;;;;;;;;;;5013135;28;20526;-73
2023/06/30 05:39:55;;;;;;;3.03;1.02;;;;;;;;;;5012841;28;20030;-74
2023/06/30 05:42:21;;;;;;;3.80;1.00;;;;;;;;;;5012871;28;20080;-74
2023/06/30 05:44:47;;;;;;;2.00;0.90;;;;;;;;;;5012792;28;20065;-72
2023/06/30 05:47:15;;;;;;;4.97;1.10;;;;;;;;;;5012664;28;20595;-72
2023/06/30 05:49:41;;;;;;;3.00;1.25;;;;;;;;;;5012606;28;20683;-71
2023/06/30 05:52:07;;;;;;;3.22;1.35;;;;;;;;;;5012221;28;20701;-72
2023/06/30 05:54:33;;;;;;;4.88;1.00;;;;;;;;;;5012782;28;20491;-72
2023/06/30 05:56:59;;;;;;;2.83;1.10;;;;;;;;;;5012188;28;20046;-72
2023/06/30 05:59:27;;;;;;;4.07;1.17;;;;;;;;;;5011897;28;20033;-71
2023/06/30 06:01:53;;;;;;;4.17;0.90;;;;;;;;;;5012794;28;20457;-74
2023/06/30 06:04:19;;;;;;;2.38;0.90;;;;;;;;;;5012335;28;20040;-73
2023/06/30 06:06:45;;;;;;;2.00;0.90;;;;;;;;;;5012463;28;20041;-73
2023/06/30 06:09:11;;;;;;;1.83;0.88;;;;;;;;;;4996873;28;20030;-73
2023/06/30 06:11:38;;;;;;;3.03;1.10;;;;;;;;;;5011937;28;20026;-73
2023/06/30 06:14:04;;;;;;;3.03;1.05;;;;;;;;;;5012706;28;20022;-73
2023/06/30 06:16:30;;;;;;;2.97;1.15;;;;;;;;;;5012072;28;20026;-73
2023/06/30 06:18:56;;;;;;;2.17;0.80;;;;;;;;;;5012229;28;20037;-73
2023/06/30 06:21:29;;;;;;;2.80;0.95;;;;;;;;;;5012330;28;20104;-72
2023/06/30 06:23:56;;;;;;;3.83;1.00;;;;;;;;;;5012206;28;20693;-73
2023/06/30 06:26:22;;;;;;;4.13;0.98;;;;;;;;;;5012244;28;20096;-73
2023/06/30 06:28:48;;;;;;;3.50;1.50;;;;;;;;;;5012617;28;20037;-73
2023/06/30 06:31:14;;;;;;;3.40;0.93;;;;;;;;;;5012235;28;20037;-74
2023/06/30 06:33:42;;;;;;;2.67;1.00;;;;;;;;;;5008285;28;20035;-73
2023/06/30 06:36:08;;;;;;;3.20;1.08;;;;;;;;;;5012747;28;20018;-73
2023/06/30 06:38:34;;;;;;;4.40;1.30;;;;;;;;;;5012203;28;20479;-73
2023/06/30 06:41:00;;;;;;;3.50;1.00;;;;;;;;;;5011987;28;20433;-74
2023/06/30 06:43:27;;;;;;;2.70;1.02;;;;;;;;;;5011973;28;20053;-74
2023/06/30 06:45:53;;;;;;;2.97;1.00;;;;;;;;;;5011536;28;20072;-74
2023/06/30 06:48:21;;;;;;;2.03;1.00;;;;;;;;;;5011488;28;20037;-74
2023/06/30 06:50:47;;;;;;;3.58;1.23;;;;;;;;;;5012295;28;20065;-73
2023/06/30 06:53:20;;;;;;;2.05;0.80;;;;;;;;;;5012057;28;20022;-74
2023/06/30 06:55:50;;;;;;;2.38;1.10;;;;;;;;;;5011950;28;20508;-74
2023/06/30 06:58:17;;;;;;;3.03;1.00;;;;;;;;;;5012063;28;20034;-73
2023/06/30 07:00:47;;;;;;;4.80;0.88;;;;;;;;;;5011988;28;20022;-74
2023/06/30 07:03:13;;;;;;;4.72;1.20;;;;;;;;;;5011750;28;20022;-74
2023/06/30 07:05:40;;;;;;;3.65;1.13;;;;;;;;;;5011699;28;20041;-74
2023/06/30 07:08:06;;;;;;;5.28;1.20;;;;;;;;;;5011953;28;20105;-74
2023/06/30 07:10:32;;;;;;;4.05;1.05;;;;;;;;;;5011955;28;20053;-74
2023/06/30 07:12:58;;;;;;;4.93;1.20;;;;;;;;;;5014695;28;20049;-73
2023/06/30 07:15:25;;;;;;;2.08;0.95;;;;;;;;;;5015371;28;20032;-74
2023/06/30 07:17:51;;;;;;;3.42;1.20;;;;;;;;;;5012770;28;20049;-74
2023/06/30 07:20:17;;;;;;;3.25;1.08;;;;;;;;;;5015023;28;20053;-74
2023/06/30 07:22:43;;;;;;;3.13;0.98;;;;;;;;;;5015402;28;20048;-74
2023/06/30 07:25:09;;;;;;;2.42;0.82;;;;;;;;;;5014885;28;20053;-74
2023/06/30 07:27:38;;;;;;;2.58;1.08;;;;;;;;;;5014773;28;20057;-72
2023/06/30 07:30:07;;;;;;;2.13;0.90;;;;;;;;;;5015316;28;20022;-72
2023/06/30 07:32:34;;;;;;;;;;;;;;;;;;5013984;28;20025;-72
2023/06/30 07:35:02;;;;;;;1.45;0.80;;;;;;;;;;5014938;28;19905;-72
2023/06/30 07:37:28;;;;;;;3.22;1.08;;;;;;;;;;5015112;28;20022;-72
2023/06/30 07:39:54;;;;;;;2.65;0.90;;;;;;;;;;5014504;28;20022;-72
2023/06/30 07:42:22;;;;;;;4.03;0.98;;;;;;;;;;5014248;28;20033;-72
2023/06/30 07:44:49;;;;;;;2.63;1.02;;;;;;;;;;5014832;28;20029;-72
2023/06/30 07:47:15;;;;;;;2.08;0.75;;;;;;;;;;5015147;28;20171;-72
2023/06/30 07:49:41;;;;;;;1.08;0.73;;;;;;;;;;5014726;28;20044;-72
2023/06/30 07:52:07;;;;;;;3.20;0.90;;;;;;;;;;5014711;28;20496;-72
2023/06/30 07:54:33;;;;;;;3.30;1.05;;;;;;;;;;5013909;28;20038;-72
2023/06/30 07:56:59;;;;;;;2.80;1.10;;;;;;;;;;5011496;28;20885;-73
2023/06/30 07:59:25;;;;;;;2.13;1.00;;;;;;;;;;5014621;28;20109;-73
2023/06/30 08:01:51;;;;;;;2.53;1.08;;;;;;;;;;5014645;28;20025;-73
2023/06/30 08:04:18;;;;;;;5.55;1.30;;;;;;;;;;5014449;28;20026;-73
2023/06/30 08:06:44;;;;;;;2.08;1.00;;;;;;;;;;5014670;28;20037;-73
2023/06/30 08:09:11;;;;;;;1.83;0.93;;;;;;;;;;5013312;28;20041;-73
2023/06/30 08:11:37;;;;;;;2.55;1.25;;;;;;;;;;5026090;28;20531;-73
2023/06/30 08:14:04;;;;;;;1.88;0.80;;;;;;;;;;5017775;28;20026;-73
2023/06/30 08:16:30;;;;;;;1.05;0.77;;;;;;;;;;5015372;28;20091;-73
2023/06/30 08:18:56;;;;;;;3.28;1.10;;;;;;;;;;5025866;28;20425;-73
2023/06/30 08:21:22;;;;;;;2.92;0.90;;;;;;;;;;5016914;28;20025;-73
2023/06/30 08:23:48;;;;;;;3.10;1.02;;;;;;;;;;5009433;28;20033;-72
2023/06/30 08:26:15;;;;;;;2.78;1.30;;;;;;;;;;5012792;28;20365;-73
2023/06/30 08:28:41;;;;;;;5.97;1.35;;;;;;;;;;5012458;28;20037;-73
2023/06/30 08:31:07;;;;;;;2.10;1.20;;;;;;;;;;5000608;28;20027;-73
2023/06/30 08:33:35;;;;;;;3.88;1.10;;;;;;;;;;5013771;28;20030;-73
2023/06/30 08:36:08;;;;;;;3.65;1.20;;;;;;;;;;5026497;28;20018;-73
2023/06/30 08:38:34;;;;;;;2.53;1.17;;;;;;;;;;5012896;28;20049;-73
2023/06/30 08:41:00;;;;;;;2.92;1.20;;;;;;;;;;5013290;28;20057;-73
2023/06/30 08:43:29;;;;;;;17.98;6.30;;;;;;;;;;5006940;28;20036;-73
2023/06/30 08:45:55;;;;;;;2.78;1.58;;;;;;;;;;5032235;28;20436;-73
2023/06/30 08:48:21;;;;;;;3.08;1.30;;;;;;;;;;5017196;28;20083;-73
2023/06/30 08:50:48;;;;;;;4.88;1.40;;;;;;;;;;5013358;28;20334;-73
2023/06/30 08:53:14;;;;;;;2.45;1.13;;;;;;;;;;5020587;28;20384;-73
2023/06/30 08:55:40;;;;;;;3.42;1.30;;;;;;;;;;5020500;28;20050;-73
2023/06/30 08:58:06;;;;;;;3.88;1.30;;;;;;;;;;5001358;28;20367;-73
2023/06/30 09:00:32;;;;;;;3.63;1.35;;;;;;;;;;5012962;28;20088;-73
2023/06/30 09:03:04;;;;;;;3.05;1.30;;;;;;;;;;5019344;28;20025;-73
2023/06/30 09:05:30;;;;;;;3.20;1.05;;;;;;;;;;5012444;28;20104;-74
2023/06/30 09:07:57;;;;;;;2.95;1.38;;;;;;;;;;5016193;28;20477;-73
2023/06/30 09:10:28;;;;;;;3.20;1.25;;;;;;;;;;5024149;28;20105;-73
2023/06/30 09:12:54;;;;;;;2.83;1.40;;;;;;;;;;5022103;28;20034;-73
2023/06/30 09:15:21;;;;;;;2.63;1.08;;;;;;;;;;5021581;28;20026;-73
2023/06/30 09:17:47;;;;;;;2.30;1.33;;;;;;;;;;5015252;28;20037;-73
2023/06/30 09:20:13;;;;;;;6.10;1.70;;;;;;;;;;5004679;28;20068;-73
2023/06/30 09:22:40;;;;;;;2.25;1.08;;;;;;;;;;5013711;28;20050;-73
2023/06/30 09:25:07;;;;;;;2.05;1.10;;;;;;;;;;5012608;28;20104;-73
2023/06/30 09:27:36;;;;;;;4.43;1.40;;;;;;;;;;5018800;28;20030;-73
2023/06/30 09:30:02;;;;;;;2.90;1.35;;;;;;;;;;5021417;28;20033;-73
2023/06/30 09:32:29;;;;;;;5.07;1.42;;;;;;;;;;5016097;28;20026;-73
2023/06/30 09:34:55;;;;;;;4.80;1.20;;;;;;;;;;5009016;28;20025;-73
2023/06/30 09:37:21;;;;;;;2.15;1.30;;;;;;;;;;5014444;28;20036;-73
2023/06/30 09:39:51;;;;;;;1.80;1.20;;;;;;;;;;5022211;28;20495;-73
2023/06/30 09:42:18;;;;;;;2.42;1.30;;;;;;;;;;5013809;28;20021;-73
2023/06/30 09:44:44;;;;;;;2.50;1.38;;;;;;;;;;5025665;28;20456;-73
2023/06/30 09:47:12;;;;;;;3.88;1.48;;;;;;;;;;5004301;28;20076;-73
2023/06/30 09:49:39;;;;;;;2.42;1.40;;;;;;;;;;5012432;28;20025;-73
2023/06/30 09:52:06;;;;;;;7.78;1.90;;;;;;;;;;5009553;28;20109;-73
2023/06/30 09:54:33;;;;;;;4.57;1.70;;;;;;;;;;5012936;28;20135;-73
2023/06/30 09:56:59;;;;;;;4.32;1.90;;;;;;;;;;5011686;28;20084;-73
2023/06/30 09:59:25;;;;;;;3.80;1.65;;;;;;;;;;5011925;28;20065;-73
2023/06/30 10:01:57;;;;;;;5.15;1.70;;;;;;;;;;5012134;28;20085;-73
2023/06/30 10:04:33;;;;;;;1.98;1.77;;;;;;;;;;5019081;28;20030;-73
2023/06/30 10:06:59;;;;;;;3.00;1.90;;;;;;;;;;5020363;28;20036;-73
2023/06/30 10:09:25;;;;;;;4.85;1.75;;;;;;;;;;5013433;28;20084;-73
2023/06/30 10:11:52;;;;;;;2.75;1.83;;;;;;;;;;5012231;28;20028;-73
2023/06/30 10:14:27;;;;;;;3.53;2.10;;;;;;;;;;5022809;28;20025;-73
2023/06/30 10:16:53;;;;;;;4.43;2.17;;;;;;;;;;5011839;28;20468;-73
2023/06/30 10:19:19;;;;;;;3.00;2.00;;;;;;;;;;5018183;28;20703;-73
2023/06/30 10:21:47;;;;;;;3.35;2.20;;;;;;;;;;5012227;28;20105;-73
2023/06/30 10:24:13;;;;;;;3.95;2.13;;;;;;;;;;5017924;28;20068;-73
2023/06/30 10:26:39;;;;;;;3.80;2.03;;;;;;;;;;5011098;28;20042;-73
2023/06/30 10:29:06;;;;;;;3.85;1.58;;;;;;;;;;5009672;28;20026;-72
2023/06/30 10:31:33;;;;;;;2.50;1.85;;;;;;;;;;5025313;28;20043;-73
2023/06/30 10:33:59;;;;;;;2.75;2.17;;;;;;;;;;5011727;28;20029;-73
2023/06/30 10:36:25;;;;;;;2.33;2.00;;;;;;;;;;5007359;28;20115;-73
2023/06/30 10:38:53;;;;;;;3.05;2.38;;;;;;;;;;5008966;28;20034;-73
2023/06/30 10:41:22;;;;;;;4.95;1.92;;;;;;;;;;5031748;28;20018;-74
2023/06/30 10:44:03;;;;;;;5.90;2.58;;;;;;;;;;5023801;28;20037;-74
2023/06/30 10:46:41;;;;;;;4.18;2.00;;;;;;;;;;5020666;28;20504;-74
2023/06/30 10:49:08;;;;;;;3.07;2.43;;;;;;;;;;5012438;28;20022;-74
2023/06/30 10:51:37;;;;;;;4.80;2.40;;;;;;;;;;5020466;28;20263;-73
2023/06/30 10:54:03;;;;;;;3.28;2.22;;;;;;;;;;5015560;28;20033;-74
2023/06/30 10:56:30;;;;;;;4.47;1.92;;;;;;;;;;5020035;28;20493;-74
2023/06/30 10:58:58;;;;;;;6.15;2.10;;;;;;;;;;5032173;28;20025;-74
2023/06/30 11:01:27;;;;;;;2.15;1.70;;;;;;;;;;5014393;28;20037;-74
2023/06/30 11:03:56;;;;;;;3.63;1.60;;;;;;;;;;5017805;28;20096;-74
2023/06/30 11:06:22;;;;;;;2.38;1.80;;;;;;;;;;5028235;28;20032;-74
2023/06/30 11:09:01;;;;;;;4.22;1.80;;;;;;;;;;5005534;28;20026;-74
2023/06/30 11:11:27;;;;;;;4.15;1.67;;;;;;;;;;5013543;28;20056;-74
2023/06/30 11:14:06;;;;;;;3.22;1.30;;;;;;;;;;5013882;28;20495;-74
2023/06/30 11:16:51;;;;;;;2.10;1.20;;;;;;;;;;5009058;28;20033;-74
2023/06/30 11:19:40;;;;;;;2.10;1.10;;;;;;;;;;5014944;28;20132;-74
2023/06/30 11:22:22;;;;;;;3.17;1.33;;;;;;;;;;4999764;28;20041;-74
2023/06/30 11:24:48;;;;;;;2.75;1.20;;;;;;;;;;5015095;28;20018;-74
2023/06/30 11:27:15;;;;;;;3.72;1.23;;;;;;;;;;5014861;28;20104;-74
2023/06/30 11:29:41;;;;;;;3.33;1.50;;;;;;;;;;5014917;28;20022;-74
2023/06/30 11:32:08;;;;;;;2.25;1.58;;;;;;;;;;5004235;28;20061;-74
2023/06/30 11:34:35;;;;;;;3.50;1.25;;;;;;;;;;5015156;28;20461;-73
2023/06/30 11:37:05;;;;;;;3.05;1.27;;;;;;;;;;5027412;28;20017;-74
2023/06/30 11:39:31;;;;;;;2.15;1.13;;;;;;;;;;5015232;28;20061;-74
2023/06/30 11:41:57;;;;;;;6.57;1.95;;;;;;;;;;5013846;28;20542;-74
2023/06/30 11:44:23;;;;;;;2.15;1.75;;;;;;;;;;5022636;28;20037;-74
2023/06/30 11:46:50;;;;;;;6.03;2.58;;;;;;;;;;5020197;28;20385;-73
2023/06/30 11:49:17;;;;;;;4.32;2.20;;;;;;;;;;5025697;28;20562;-74
2023/06/30 11:51:43;;;;;;;4.15;2.35;;;;;;;;;;5014589;28;20101;-74
2023/06/30 11:54:09;;;;;;;3.17;1.95;;;;;;;;;;5015316;28;20109;-74
2023/06/30 11:56:39;;;;;;;5.95;2.28;;;;;;;;;;5016257;28;20050;-74
2023/06/30 11:59:05;;;;;;;;;;;;;;;;;;5024933;28;20105;-73
2023/06/30 12:01:31;;;;;;;3.72;1.85;;;;;;;;;;5027319;28;19987;-73
2023/06/30 12:04:20;;;;;;;3.33;2.15;;;;;;;;;;5014344;28;20096;-73
2023/06/30 12:06:46;;;;;;;3.78;1.73;;;;;;;;;;5013306;28;20568;-74
2023/06/30 12:09:12;;;;;;;3.67;2.10;;;;;;;;;;5013728;28;20048;-74
2023/06/30 12:11:41;;;;;;;3.35;1.83;;;;;;;;;;5011204;28;20042;-74
2023/06/30 12:14:07;;;;;;;;;;;;;;;;;;5006885;28;20031;-74
2023/06/30 12:16:41;;;;;;;5.18;1.90;;;;;;;;;;5004356;28;19967;-74
2023/06/30 12:19:08;;;;;;;3.55;1.83;;;;;;;;;;5005696;28;20092;-74
2023/06/30 12:21:35;;;;;;;3.72;2.25;;;;;;;;;;5004609;28;20018;-74
2023/06/30 12:24:04;;;;;;;4.47;2.15;;;;;;;;;;5008209;28;20089;-74
2023/06/30 12:26:30;;;;;;;;;;;;;;;;;;5010923;28;20041;-74
2023/06/30 12:29:07;;;;;;;5.40;2.08;;;;;;;;;;5006530;28;19913;-74
2023/06/30 12:31:33;;;;;;;5.03;2.03;;;;;;;;;;4999436;28;20583;-74
2023/06/30 12:33:59;;;;;;;5.85;1.85;;;;;;;;;;5007794;28;20022;-74
2023/06/30 12:36:28;;;;;;;3.10;2.30;;;;;;;;;;5021249;28;20477;-74
2023/06/30 12:38:54;;;;;;;;;;;;;;;;;;5018435;28;20076;-74
2023/06/30 12:41:20;;;;;;;4.18;2.72;;;;;;;;;;5023415;28;20469;-74
2023/06/30 12:43:46;;;;;;;3.17;2.30;;;;;;;;;;5026470;28;20040;-74
2023/06/30 12:46:12;;;;;;;3.25;2.08;;;;;;;;;;5026615;28;20049;-74
2023/06/30 12:48:38;;;;;;;5.35;2.90;;;;;;;;;;5013365;28;20377;-74
2023/06/30 12:51:04;;;;;;;4.60;2.58;;;;;;;;;;5013454;28;20033;-74
2023/06/30 12:53:30;;;;;;;4.75;2.35;;;;;;;;;;5017101;28;20057;-74
2023/06/30 12:55:57;;;;;;;4.97;2.00;;;;;;;;;;5011543;28;20485;-74
2023/06/30 12:58:23;;;;;;;4.97;2.50;;;;;;;;;;5017060;28;20389;-74
2023/06/30 13:00:50;;;;;;;3.75;2.10;;;;;;;;;;5013485;28;20033;-74
2023/06/30 13:03:17;;;;;;;3.90;1.95;;;;;;;;;;5012900;28;20026;-74
2023/06/30 13:05:43;;;;;;;2.45;2.00;;;;;;;;;;5013422;28;20036;-74
2023/06/30 13:08:09;;;;;;;2.50;2.22;;;;;;;;;;5012927;28;20034;-74
2023/06/30 13:10:35;;;;;;;4.47;2.28;;;;;;;;;;5016209;28;20026;-74
2023/06/30 13:13:01;;;;;;;4.45;2.53;;;;;;;;;;5015654;28;20038;-74
2023/06/30 13:15:29;;;;;;;7.57;2.35;;;;;;;;;;5004700;28;20469;-74
2023/06/30 13:17:55;;;;;;;2.63;2.38;;;;;;;;;;5026310;28;20464;-75
2023/06/30 13:20:21;;;;;;;3.80;2.88;;;;;;;;;;5012911;28;20018;-74
2023/06/30 13:22:47;;;;;;;4.30;2.78;;;;;;;;;;5012792;28;20033;-74
2023/06/30 13:25:13;;;;;;;3.97;3.30;;;;;;;;;;5012970;28;20040;-74
2023/06/30 13:27:44;;;;;;;4.25;3.78;;;;;;;;;;5015117;28;20101;-74
2023/06/30 13:30:11;;;;;;;6.18;3.10;;;;;;;;;;5023784;28;20120;-74
2023/06/30 13:32:39;;;;;;;5.25;3.00;;;;;;;;;;5013627;28;20443;-74
2023/06/30 13:35:05;;;;;;;2.65;2.45;;;;;;;;;;5013833;28;20026;-74
2023/06/30 13:37:31;;;;;;;5.43;2.83;;;;;;;;;;5033981;28;20510;-74
2023/06/30 13:39:57;;;;;;;2.95;2.55;;;;;;;;;;5023008;28;20481;-74
2023/06/30 13:42:24;;;;;;;3.95;2.85;;;;;;;;;;5013258;28;20389;-74
2023/06/30 13:44:50;;;;;;;5.22;2.47;;;;;;;;;;5013028;28;20034;-74
2023/06/30 13:47:16;;;;;;;5.05;2.70;;;;;;;;;;5017438;28;20026;-74
2023/06/30 13:49:42;;;;;;;3.13;2.30;;;;;;;;;;5021291;28;20050;-74
2023/06/30 13:52:08;;;;;;;4.25;2.20;;;;;;;;;;4994366;28;20513;-74
2023/06/30 13:54:36;;;;;;;2.05;1.85;;;;;;;;;;5016029;28;20032;-74
2023/06/30 13:57:02;;;;;;;4.68;2.10;;;;;;;;;;5013717;28;20104;-74
2023/06/30 13:59:28;;;;;;;2.28;1.70;;;;;;;;;;5012493;28;20029;-74
2023/06/30 14:01:54;;;;;;;2.03;1.75;;;;;;;;;;5006773;28;20154;-73
2023/06/30 14:04:20;;;;;;;2.28;2.08;;;;;;;;;;5012067;28;20038;-74
2023/06/30 14:06:46;;;;;;;4.00;2.00;;;;;;;;;;5017823;28;20021;-74
2023/06/30 14:09:12;;;;;;;3.05;1.95;;;;;;;;;;5019649;28;20040;-74
2023/06/30 14:11:38;;;;;;;3.35;1.80;;;;;;;;;;5021199;28;20076;-74
2023/06/30 14:14:05;;;;;;;4.60;2.00;;;;;;;;;;5020320;28;20067;-74
2023/06/30 14:16:31;;;;;;;3.53;1.90;;;;;;;;;;5029436;28;20029;-74
2023/06/30 14:18:57;;;;;;;2.22;2.03;;;;;;;;;;5012439;28;20025;-74
2023/06/30 14:21:23;;;;;;;5.43;1.50;;;;;;;;;;5010325;28;20042;-74
2023/06/30 14:23:49;;;;;;;3.20;1.70;;;;;;;;;;5017886;28;20033;-74
2023/06/30 14:26:15;;;;;;;6.40;1.90;;;;;;;;;;5031439;28;20475;-74
2023/06/30 14:28:42;;;;;;;3.58;1.75;;;;;;;;;;5016158;28;20045;-74
2023/06/30 14:31:08;;;;;;;2.88;1.52;;;;;;;;;;5019967;28;20053;-74
2023/06/30 14:33:35;;;;;;;4.18;1.75;;;;;;;;;;5023588;28;20065;-74
2023/06/30 14:36:03;;;;;;;3.83;2.10;;;;;;;;;;5032606;28;20025;-74
2023/06/30 14:38:29;;;;;;;4.03;1.70;;;;;;;;;;5023081;28;20080;-74
2023/06/30 14:40:55;;;;;;;5.20;1.75;;;;;;;;;;5014329;28;20084;-74
2023/06/30 14:43:23;;;;;;;6.07;1.80;;;;;;;;;;5014768;28;20014;-74
2023/06/30 14:45:50;;;;;;;4.85;2.20;;;;;;;;;;5028625;28;20034;-74